createdAt,value
2023-01-29T00:00:10.302Z,23.77
2023-01-29T00:02:39.024Z,24.03
2023-01-29T00:05:25.964Z,25.83
2023-01-29T00:07:57.506Z,25.87
2023-01-29T00:10:26.318Z,25.77
2023-01-29T00:12:54.941Z,25.53
2023-01-29T00:15:23.401Z,26.00
2023-01-29T00:17:51.925Z,25.87
2023-01-29T00:20:20.715Z,25.80
2023-01-29T00:22:49.560Z,24.97
2023-01-29T00:25:19.487Z,23.07
2023-01-29T00:27:48.114Z,23.77
2023-01-29T00:30:19.820Z,26.10
2023-01-29T00:32:48.733Z,24.40
2023-01-29T00:35:17.545Z,25.40
2023-01-29T00:37:46.126Z,24.97
2023-01-29T00:40:15.668Z,28.03
2023-01-29T00:43:04.370Z,26.23
2023-01-29T00:45:32.976Z,26.03
2023-01-29T00:48:01.552Z,27.57
2023-01-29T00:50:30.291Z,25.97
2023-01-29T00:52:59.172Z,26.47
2023-01-29T00:55:27.675Z,27.60
2023-01-29T00:57:57.609Z,27.00
2023-01-29T01:00:26.268Z,26.40
2023-01-29T01:03:06.010Z,28.07
2023-01-29T01:05:35.000Z,26.80
2023-01-29T01:08:03.567Z,26.80
2023-01-29T01:10:33.546Z,28.23
2023-01-29T01:13:05.826Z,28.90
2023-01-29T01:15:37.194Z,27.83
2023-01-29T01:18:06.249Z,29.13
2023-01-29T01:20:36.094Z,29.00
2023-01-29T01:23:04.939Z,30.10
2023-01-29T01:25:33.485Z,29.30
2023-01-29T01:28:03.434Z,29.13
2023-01-29T01:30:33.171Z,28.90
2023-01-29T01:33:01.784Z,29.63
2023-01-29T01:35:30.366Z,30.23
2023-01-29T01:37:58.876Z,28.83
2023-01-29T01:40:27.691Z,27.23
2023-01-29T01:42:57.892Z,26.47
2023-01-29T01:45:29.756Z,23.50
2023-01-29T01:48:02.297Z,24.80
2023-01-29T01:50:34.503Z,26.17
2023-01-29T01:53:06.817Z,26.60
2023-01-29T01:55:37.566Z,25.17
2023-01-29T01:58:10.201Z,26.47
2023-01-29T02:00:40.993Z,29.10
2023-01-29T02:03:28.427Z,27.67
2023-01-29T02:06:16.457Z,27.87
2023-01-29T02:09:06.731Z,27.70
2023-01-29T02:11:35.349Z,26.93
2023-01-29T02:14:03.988Z,30.43
2023-01-29T02:16:36.415Z,29.93
2023-01-29T02:19:30.405Z,30.53
2023-01-29T02:22:12.884Z,27.63
2023-01-29T02:25:11.231Z,27.00
2023-01-29T02:28:09.049Z,29.37
2023-01-29T02:30:41.360Z,29.47
2023-01-29T02:33:22.285Z,26.20
2023-01-29T02:35:58.111Z,26.47
2023-01-29T02:38:31.505Z,27.20
2023-01-29T02:41:05.235Z,27.87
2023-01-29T02:43:43.368Z,29.57
2023-01-29T02:46:18.001Z,29.70
2023-01-29T02:48:50.515Z,30.47
2023-01-29T02:51:22.002Z,27.23
2023-01-29T02:53:57.797Z,27.27
2023-01-29T02:56:32.382Z,28.70
2023-01-29T02:59:04.738Z,26.50
2023-01-29T03:01:35.898Z,27.33
2023-01-29T03:04:07.624Z,26.20
2023-01-29T03:06:38.798Z,26.33
2023-01-29T03:09:11.663Z,28.90
2023-01-29T03:11:43.668Z,24.77
2023-01-29T03:14:16.972Z,25.17
2023-01-29T03:16:49.051Z,26.70
2023-01-29T03:19:20.745Z,25.63
2023-01-29T03:21:51.575Z,27.13
2023-01-29T03:24:41.760Z,24.90
2023-01-29T03:27:29.203Z,27.37
2023-01-29T03:30:17.934Z,25.17
2023-01-29T03:32:48.225Z,25.43
2023-01-29T03:35:21.760Z,24.83
2023-01-29T03:37:50.955Z,24.60
2023-01-29T03:40:19.789Z,27.63
2023-01-29T03:42:56.060Z,24.90
2023-01-29T03:45:31.225Z,25.17
2023-01-29T03:48:05.639Z,23.97
2023-01-29T03:50:39.424Z,23.10
2023-01-29T03:53:14.311Z,25.50
2023-01-29T03:55:46.097Z,23.87
2023-01-29T03:58:22.614Z,22.73
2023-01-29T04:00:55.162Z,24.60
2023-01-29T04:03:26.165Z,24.93
2023-01-29T04:06:05.547Z,23.60
2023-01-29T04:08:36.019Z,22.30
2023-01-29T04:11:10.816Z,24.03
2023-01-29T04:13:40.420Z,22.07
2023-01-29T04:16:15.126Z,21.17
2023-01-29T04:18:46.523Z,19.90
2023-01-29T04:21:15.923Z,21.53
2023-01-29T04:23:44.482Z,20.13
2023-01-29T04:26:26.492Z,20.37
2023-01-29T04:29:05.268Z,20.77
2023-01-29T04:31:44.946Z,22.23
2023-01-29T04:34:21.004Z,22.90
2023-01-29T04:36:57.551Z,23.03
2023-01-29T04:39:28.701Z,25.70
2023-01-29T04:42:04.122Z,26.70
2023-01-29T04:44:37.029Z,24.27
2023-01-29T04:47:15.866Z,21.97
2023-01-29T04:49:48.181Z,19.93
2023-01-29T04:52:21.491Z,18.83
2023-01-29T04:54:59.284Z,17.77
2023-01-29T04:57:31.733Z,17.37
2023-01-29T05:00:04.558Z,15.40
2023-01-29T05:02:37.054Z,15.83
2023-01-29T05:05:07.041Z,12.03
2023-01-29T05:07:37.762Z,13.13
2023-01-29T05:10:07.833Z,14.00
2023-01-29T05:12:38.317Z,12.10
2023-01-29T05:15:10.805Z,11.90
2023-01-29T05:17:40.712Z,11.87
2023-01-29T05:20:11.935Z,12.73
2023-01-29T05:22:41.643Z,10.80
2023-01-29T05:25:22.329Z,10.57
2023-01-29T05:28:05.928Z,13.73
2023-01-29T05:30:37.072Z,17.40
2023-01-29T05:33:13.785Z,16.50
2023-01-29T05:35:42.490Z,13.37
2023-01-29T05:38:11.355Z,14.47
2023-01-29T05:40:40.230Z,12.17
2023-01-29T05:43:15.370Z,11.60
2023-01-29T05:45:44.108Z,11.50
2023-01-29T05:48:14.100Z,9.77
2023-01-29T05:50:42.595Z,11.00
2023-01-29T05:53:11.116Z,11.23
2023-01-29T05:55:39.683Z,8.70
2023-01-29T05:58:08.192Z,9.80
2023-01-29T06:00:36.871Z,8.17
2023-01-29T06:03:05.500Z,7.80
2023-01-29T06:05:38.406Z,7.67
2023-01-29T06:08:08.373Z,8.83
2023-01-29T06:10:37.169Z,17.27
2023-01-29T06:13:05.847Z,11.47
2023-01-29T06:15:34.356Z,8.90
2023-01-29T06:18:02.955Z,8.17
2023-01-29T06:20:31.815Z,7.70
2023-01-29T06:23:02.009Z,7.23
2023-01-29T06:25:30.507Z,6.90
2023-01-29T06:27:59.627Z,6.50
2023-01-29T06:30:28.946Z,6.27
2023-01-29T06:33:01.569Z,7.03
2023-01-29T06:35:30.248Z,8.83
2023-01-29T06:37:58.795Z,8.73
2023-01-29T06:40:28.710Z,7.80
2023-01-29T06:42:57.524Z,8.00
2023-01-29T06:45:26.107Z,8.03
2023-01-29T06:47:54.751Z,8.43
2023-01-29T06:50:23.254Z,7.93
2023-01-29T06:52:52.861Z,6.83
2023-01-29T06:55:21.368Z,9.83
2023-01-29T06:57:51.406Z,10.47
2023-01-29T07:00:20.678Z,11.70
2023-01-29T07:02:50.671Z,10.70
2023-01-29T07:05:19.413Z,11.33
2023-01-29T07:07:48.073Z,10.03
2023-01-29T07:10:17.606Z,9.83
2023-01-29T07:12:46.304Z,7.13
2023-01-29T07:15:19.697Z,6.53
2023-01-29T07:17:58.220Z,6.70
2023-01-29T07:20:27.406Z,5.77
2023-01-29T07:22:56.521Z,6.63
2023-01-29T07:25:25.740Z,5.53
2023-01-29T07:27:54.345Z,6.20
2023-01-29T07:30:24.516Z,7.67
2023-01-29T07:32:53.218Z,8.30
2023-01-29T07:35:21.808Z,6.20
2023-01-29T07:37:50.635Z,7.63
2023-01-29T07:40:19.751Z,6.93
2023-01-29T07:42:51.384Z,6.40
2023-01-29T07:45:20.027Z,8.20
2023-01-29T07:47:53.769Z,8.83
2023-01-29T07:50:22.646Z,9.33
2023-01-29T07:52:51.462Z,7.33
2023-01-29T07:55:20.112Z,9.67
2023-01-29T07:57:48.630Z,8.20
2023-01-29T08:00:18.629Z,7.40
2023-01-29T08:02:47.447Z,7.80
2023-01-29T08:05:17.388Z,8.13
2023-01-29T08:07:51.555Z,9.73
2023-01-29T08:10:29.847Z,10.80
2023-01-29T08:12:58.895Z,10.23
2023-01-29T08:15:28.116Z,9.63
2023-01-29T08:17:58.289Z,10.90
2023-01-29T08:20:28.538Z,12.13
2023-01-29T08:23:01.440Z,9.53
2023-01-29T08:25:30.718Z,12.20
2023-01-29T08:27:59.898Z,13.90
2023-01-29T08:30:29.251Z,12.50
2023-01-29T08:32:57.985Z,13.37
2023-01-29T08:35:28.254Z,14.13
2023-01-29T08:38:00.526Z,15.17
2023-01-29T08:40:31.743Z,11.33
2023-01-29T08:43:02.245Z,13.57
2023-01-29T08:45:31.813Z,11.27
2023-01-29T08:48:01.184Z,12.37
2023-01-29T08:50:32.422Z,13.57
2023-01-29T08:53:02.078Z,13.50
2023-01-29T08:55:30.718Z,13.63
2023-01-29T08:57:59.229Z,18.30
2023-01-29T09:00:28.279Z,14.90
2023-01-29T09:02:59.562Z,13.70
2023-01-29T09:05:28.213Z,12.43
2023-01-29T09:07:59.008Z,14.33
2023-01-29T09:10:28.456Z,14.10
2023-01-29T09:12:56.990Z,16.27
2023-01-29T09:15:25.659Z,15.23
2023-01-29T09:17:54.392Z,19.90
2023-01-29T09:20:23.500Z,17.83
2023-01-29T09:22:53.748Z,12.20
2023-01-29T09:25:23.816Z,12.40
2023-01-29T09:27:52.552Z,12.13
2023-01-29T09:30:21.781Z,16.73
2023-01-29T09:32:53.737Z,12.27
2023-01-29T09:35:23.389Z,12.13
2023-01-29T09:37:52.659Z,12.10
2023-01-29T09:40:27.776Z,11.90
2023-01-29T09:43:00.259Z,11.03
2023-01-29T09:45:30.273Z,11.67
2023-01-29T09:48:00.480Z,11.80
2023-01-29T09:50:42.732Z,11.97
2023-01-29T09:53:20.642Z,15.43
2023-01-29T09:55:56.542Z,14.70
2023-01-29T09:58:29.278Z,11.70
2023-01-29T10:01:05.269Z,11.70
2023-01-29T10:03:53.920Z,12.13
2023-01-29T10:06:33.694Z,13.07
2023-01-29T10:09:29.335Z,11.53
2023-01-29T10:12:07.051Z,11.40
2023-01-29T10:14:42.086Z,11.17
2023-01-29T10:17:25.286Z,11.57
2023-01-29T10:20:15.391Z,12.03
2023-01-29T10:22:54.632Z,11.97
2023-01-29T10:25:24.071Z,11.77
2023-01-29T10:27:56.812Z,12.43
2023-01-29T10:30:32.308Z,11.27
2023-01-29T10:33:04.444Z,12.47
2023-01-29T10:35:35.881Z,11.23
2023-01-29T10:38:20.566Z,11.60
2023-01-29T10:40:53.490Z,11.90
2023-01-29T10:43:30.955Z,11.57
2023-01-29T10:46:09.006Z,12.63
2023-01-29T10:48:45.874Z,17.87
2023-01-29T10:51:32.346Z,18.97
2023-01-29T10:54:09.424Z,16.40
2023-01-29T10:56:49.690Z,18.10
2023-01-29T10:59:33.444Z,13.40
2023-01-29T11:02:03.460Z,12.43
2023-01-29T11:04:33.839Z,13.93
2023-01-29T11:07:02.370Z,11.77
2023-01-29T11:09:33.713Z,12.27
2023-01-29T11:12:03.695Z,11.93
2023-01-29T11:14:40.467Z,11.27
2023-01-29T11:17:16.473Z,13.80
2023-01-29T11:19:46.618Z,11.63
2023-01-29T11:22:16.352Z,11.73
2023-01-29T11:24:44.915Z,11.90
2023-01-29T11:27:22.003Z,11.57
2023-01-29T11:29:51.952Z,12.50
2023-01-29T11:32:27.418Z,13.63
2023-01-29T11:35:01.569Z,14.83
2023-01-29T11:37:35.504Z,13.43
2023-01-29T11:40:34.131Z,13.33
2023-01-29T11:43:14.135Z,12.60
2023-01-29T11:45:44.125Z,11.27
2023-01-29T11:48:16.636Z,12.53
2023-01-29T11:50:45.778Z,13.17
2023-01-29T11:53:37.948Z,12.50
2023-01-29T11:56:16.196Z,13.53
2023-01-29T11:58:45.169Z,13.07
2023-01-29T12:01:18.412Z,10.63
2023-01-29T12:03:53.913Z,11.90
2023-01-29T12:06:24.960Z,13.30
2023-01-29T12:08:58.888Z,12.23
2023-01-29T12:11:30.388Z,13.37
2023-01-29T12:14:00.920Z,16.10
2023-01-29T12:16:33.852Z,15.07
2023-01-29T12:19:11.343Z,15.50
2023-01-29T12:21:45.488Z,14.23
2023-01-29T12:24:30.840Z,13.57
2023-01-29T12:27:03.301Z,14.67
2023-01-29T12:29:37.803Z,14.03
2023-01-29T12:32:14.202Z,13.23
2023-01-29T12:34:46.956Z,19.77
2023-01-29T12:37:21.329Z,16.83
2023-01-29T12:39:50.677Z,12.73
2023-01-29T12:42:22.541Z,12.70
2023-01-29T12:44:54.624Z,12.70
2023-01-29T12:47:28.377Z,12.27
2023-01-29T12:49:58.784Z,12.83
2023-01-29T12:52:37.818Z,11.80
2023-01-29T12:55:12.876Z,29.00
2023-01-29T12:57:45.978Z,19.20
2023-01-29T13:00:18.218Z,13.60
2023-01-29T13:02:53.745Z,13.63
2023-01-29T13:05:25.902Z,12.23
2023-01-29T13:07:59.069Z,14.30
2023-01-29T13:10:30.928Z,12.47
2023-01-29T13:13:03.451Z,10.17
2023-01-29T13:15:34.646Z,10.70
2023-01-29T13:18:39.211Z,10.53
2023-01-29T13:21:08.377Z,11.10
2023-01-29T13:23:39.471Z,11.30
2023-01-29T13:26:08.211Z,32.27
2023-01-29T13:28:38.000Z,13.27
2023-01-29T13:31:15.359Z,10.37
2023-01-29T13:33:52.671Z,11.40
2023-01-29T13:36:26.791Z,12.07
2023-01-29T13:39:00.097Z,11.87
2023-01-29T13:41:37.183Z,11.90
2023-01-29T13:44:07.565Z,11.97
2023-01-29T13:46:41.443Z,11.40
2023-01-29T13:49:36.706Z,12.83
2023-01-29T13:52:17.691Z,11.93
2023-01-29T13:54:52.826Z,18.10
2023-01-29T13:57:56.277Z,14.77
2023-01-29T14:00:58.253Z,12.03
2023-01-29T14:04:03.674Z,12.23
2023-01-29T14:06:53.170Z,12.10
2023-01-29T14:09:56.333Z,13.03
2023-01-29T14:12:34.951Z,10.93
2023-01-29T14:15:33.385Z,11.90
2023-01-29T14:18:22.386Z,11.27
2023-01-29T14:21:06.147Z,11.70
2023-01-29T14:23:41.789Z,12.37
2023-01-29T14:26:43.766Z,16.83
2023-01-29T14:29:39.985Z,13.10
2023-01-29T14:32:13.679Z,12.80
2023-01-29T14:34:45.457Z,16.37
2023-01-29T14:37:21.922Z,15.77
2023-01-29T14:39:53.259Z,26.40
2023-01-29T14:42:25.507Z,28.00
2023-01-29T14:45:08.903Z,17.27
2023-01-29T14:48:01.194Z,13.40
2023-01-29T14:50:50.575Z,13.93
2023-01-29T14:53:57.132Z,13.30
2023-01-29T14:56:30.895Z,14.97
2023-01-29T14:59:06.910Z,13.20
2023-01-29T15:01:38.289Z,13.20
2023-01-29T15:04:08.559Z,13.23
2023-01-29T15:06:44.003Z,14.27
2023-01-29T15:09:15.576Z,13.57
2023-01-29T15:11:51.566Z,12.87
2023-01-29T15:14:27.652Z,11.87
2023-01-29T15:17:03.886Z,13.87
2023-01-29T15:19:37.035Z,15.27
2023-01-29T15:22:11.182Z,28.07
2023-01-29T15:24:40.993Z,15.07
2023-01-29T15:27:15.220Z,14.20
2023-01-29T15:29:45.520Z,15.47
2023-01-29T15:32:20.326Z,13.17
2023-01-29T15:34:49.736Z,22.13
2023-01-29T15:37:27.291Z,20.97
2023-01-29T15:39:56.565Z,15.90
2023-01-29T15:42:28.168Z,14.23
2023-01-29T15:44:57.261Z,15.50
2023-01-29T15:47:28.459Z,14.20
2023-01-29T15:49:58.347Z,16.90
2023-01-29T15:52:29.059Z,15.73
2023-01-29T15:54:58.269Z,14.50
2023-01-29T15:57:34.345Z,15.53
2023-01-29T16:00:04.584Z,15.87
2023-01-29T16:02:41.330Z,13.97
2023-01-29T16:05:13.232Z,16.50
2023-01-29T16:07:42.679Z,18.27
2023-01-29T16:10:17.479Z,16.07
2023-01-29T16:12:51.402Z,16.13
2023-01-29T16:15:32.281Z,17.50
2023-01-29T16:18:02.212Z,14.33
2023-01-29T16:20:38.349Z,22.43
2023-01-29T16:23:08.198Z,16.23
2023-01-29T16:25:39.175Z,18.35
2023-01-29T16:28:11.699Z,17.77
2023-01-29T16:30:40.672Z,17.53
2023-01-29T16:33:13.998Z,16.67
2023-01-29T16:35:42.905Z,15.57
2023-01-29T16:38:30.278Z,24.97
2023-01-29T16:41:08.496Z,14.90
2023-01-29T16:43:59.799Z,14.20
2023-01-29T16:46:34.301Z,13.20
2023-01-29T16:49:03.427Z,13.37
2023-01-29T16:51:36.179Z,16.10
2023-01-29T16:54:13.591Z,17.80
2023-01-29T16:56:42.100Z,14.83
2023-01-29T16:59:20.011Z,15.37
2023-01-29T17:01:50.107Z,14.90
2023-01-29T17:04:20.639Z,15.03
2023-01-29T17:06:50.985Z,12.97
2023-01-29T17:09:25.492Z,14.70
2023-01-29T17:11:57.073Z,15.17
2023-01-29T17:14:27.523Z,15.40
2023-01-29T17:16:57.391Z,14.77
2023-01-29T17:19:26.496Z,14.87
2023-01-29T17:21:55.492Z,14.63
2023-01-29T17:24:24.207Z,13.30
2023-01-29T17:26:53.274Z,15.27
2023-01-29T17:29:24.658Z,13.57
2023-01-29T17:31:56.104Z,14.50
2023-01-29T17:34:25.653Z,13.90
2023-01-29T17:36:54.169Z,14.27
2023-01-29T17:39:24.517Z,16.70
2023-01-29T17:41:54.886Z,17.23
2023-01-29T17:44:23.813Z,16.97
2023-01-29T17:46:52.541Z,15.03
2023-01-29T17:49:25.330Z,14.43
2023-01-29T17:51:54.719Z,13.27
2023-01-29T17:54:23.566Z,14.10
2023-01-29T17:56:53.932Z,14.50
2023-01-29T17:59:24.441Z,13.93
2023-01-29T18:01:53.307Z,14.47
2023-01-29T18:04:23.363Z,15.13
2023-01-29T18:06:53.430Z,14.40
2023-01-29T18:09:23.202Z,16.20
2023-01-29T18:11:52.056Z,15.03
2023-01-29T18:14:20.894Z,15.50
2023-01-29T18:16:49.456Z,14.67
2023-01-29T18:19:22.203Z,14.20
2023-01-29T18:21:53.499Z,14.20
2023-01-29T18:24:22.023Z,14.87
2023-01-29T18:26:51.207Z,14.40
2023-01-29T18:29:19.775Z,14.97
2023-01-29T18:31:50.238Z,18.50
2023-01-29T18:34:18.793Z,20.97
2023-01-29T18:36:48.039Z,14.77
2023-01-29T18:39:18.445Z,15.47
2023-01-29T18:41:46.987Z,14.60
2023-01-29T18:44:15.493Z,14.53
2023-01-29T18:46:44.036Z,13.47
2023-01-29T18:49:12.621Z,14.43
2023-01-29T18:51:41.244Z,15.17
2023-01-29T18:54:12.920Z,14.33
2023-01-29T18:57:11.537Z,13.67
2023-01-29T18:59:31.413Z,13.30
2023-01-29T19:02:00.153Z,15.63
2023-01-29T19:04:28.797Z,14.17
2023-01-29T19:06:57.476Z,13.20
2023-01-29T19:09:26.180Z,14.87
2023-01-29T19:11:56.135Z,13.47
2023-01-29T19:14:24.649Z,14.37
2023-01-29T19:16:53.324Z,13.93
2023-01-29T19:19:21.927Z,15.63
2023-01-29T19:21:53.173Z,14.63
2023-01-29T19:24:21.759Z,14.67
2023-01-29T19:26:51.007Z,14.87
2023-01-29T19:29:21.271Z,14.73
2023-01-29T19:31:49.905Z,15.63
2023-01-29T19:34:18.432Z,15.10
2023-01-29T19:36:46.982Z,17.20
2023-01-29T19:39:16.030Z,17.63
2023-01-29T19:41:44.612Z,17.80
2023-01-29T19:44:13.303Z,23.00
2023-01-29T19:46:43.817Z,19.27
2023-01-29T19:49:12.337Z,17.17
2023-01-29T19:51:41.492Z,17.50
2023-01-29T19:54:10.975Z,18.80
2023-01-29T19:56:39.503Z,17.70
2023-01-29T19:59:08.321Z,19.30
2023-01-29T20:01:37.540Z,16.33
2023-01-29T20:04:07.493Z,18.53
2023-01-29T20:06:36.156Z,18.33
2023-01-29T20:09:05.100Z,17.60
2023-01-29T20:11:33.961Z,16.63
2023-01-29T20:14:02.635Z,16.00
2023-01-29T20:16:31.201Z,16.20
2023-01-29T20:19:14.029Z,16.37
2023-01-29T20:21:48.845Z,16.37
2023-01-29T20:24:18.716Z,15.13
2023-01-29T20:26:47.333Z,14.57
2023-01-29T20:29:16.437Z,21.03
2023-01-29T20:31:45.211Z,25.73
2023-01-29T20:34:13.991Z,17.87
2023-01-29T20:36:44.048Z,15.13
2023-01-29T20:39:12.900Z,15.60
2023-01-29T20:41:41.942Z,14.67
2023-01-29T20:44:10.731Z,16.27
2023-01-29T20:46:39.385Z,15.87
2023-01-29T20:49:08.049Z,19.17
2023-01-29T20:51:36.833Z,27.07
2023-01-29T20:54:06.874Z,21.03
2023-01-29T20:56:39.757Z,21.20
2023-01-29T20:59:13.155Z,19.27
2023-01-29T21:01:41.656Z,18.33
2023-01-29T21:04:10.304Z,19.13
2023-01-29T21:06:38.883Z,17.73
2023-01-29T21:09:09.180Z,17.23
2023-01-29T21:11:37.785Z,16.73
2023-01-29T21:14:07.205Z,14.97
2023-01-29T21:16:35.883Z,16.67
2023-01-29T21:19:04.731Z,16.10
2023-01-29T21:21:33.449Z,15.43
2023-01-29T21:24:02.205Z,15.73
2023-01-29T21:26:32.244Z,15.40
2023-01-29T21:29:00.896Z,14.93
2023-01-29T21:31:29.425Z,17.07
2023-01-29T21:33:58.012Z,19.10
2023-01-29T21:36:26.587Z,18.57
2023-01-29T21:38:55.161Z,17.23
2023-01-29T21:41:43.857Z,16.73
2023-01-29T21:44:13.032Z,15.70
2023-01-29T21:46:42.741Z,14.13
2023-01-29T21:49:11.264Z,16.60
2023-01-29T21:51:41.549Z,22.90
2023-01-29T21:54:10.266Z,10.70
2023-01-29T21:56:39.086Z,14.63
2023-01-29T21:59:07.641Z,14.60
2023-01-29T22:01:38.856Z,14.73
2023-01-29T22:04:09.787Z,13.53
2023-01-29T22:06:38.379Z,11.50
2023-01-29T22:09:06.906Z,13.27
2023-01-29T22:11:35.544Z,11.40
2023-01-29T22:14:04.098Z,11.73
2023-01-29T22:16:32.581Z,12.53
2023-01-29T22:19:02.494Z,28.97
2023-01-29T22:21:31.099Z,21.57
2023-01-29T22:23:59.727Z,18.67
2023-01-29T22:26:29.677Z,15.10
2023-01-29T22:28:58.277Z,12.97
2023-01-29T22:31:26.833Z,13.07
2023-01-29T22:33:55.301Z,12.53
2023-01-29T22:36:25.307Z,12.33
2023-01-29T22:38:53.812Z,13.13
2023-01-29T22:41:22.362Z,14.70
2023-01-29T22:43:50.867Z,15.53
2023-01-29T22:46:19.398Z,27.83
2023-01-29T22:48:47.992Z,24.67
2023-01-29T22:51:16.498Z,17.93
2023-01-29T22:53:51.137Z,14.97
2023-01-29T22:56:20.317Z,16.23
2023-01-29T22:58:51.575Z,16.50
2023-01-29T23:01:20.289Z,19.33
2023-01-29T23:03:48.935Z,16.03
2023-01-29T23:06:18.273Z,17.57
2023-01-29T23:08:48.355Z,15.20
2023-01-29T23:11:19.882Z,12.13
2023-01-29T23:13:50.154Z,13.53
2023-01-29T23:16:19.797Z,11.07
2023-01-29T23:18:51.305Z,13.27
2023-01-29T23:21:20.076Z,12.43
2023-01-29T23:23:52.310Z,14.40
2023-01-29T23:26:38.554Z,16.90
2023-01-29T23:29:07.062Z,18.17
2023-01-29T23:31:35.813Z,14.47
2023-01-29T23:34:04.372Z,12.33
2023-01-29T23:36:33.187Z,11.53
2023-01-29T23:39:03.182Z,9.07
2023-01-29T23:41:31.731Z,10.83
2023-01-29T23:44:00.281Z,10.90
2023-01-29T23:46:28.864Z,10.17
2023-01-29T23:48:57.361Z,10.03
2023-01-29T23:51:25.968Z,10.40
2023-01-29T23:53:55.530Z,10.93
2023-01-29T23:56:25.671Z,11.43
2023-01-29T23:58:55.382Z,14.27
